Time,TemperatureF,DewpointF,PressureIn,WindDirection,WindDirectionDegrees,WindSpeedMPH,WindSpeedGustMPH,Humidity,HourlyPrecipIn,Conditions,Clouds,dailyrainin,SolarRadiationWatts/m^2,SoftwareType,DateUTC
2013-02-07 00:00:00,27.6,13.2,30.10,NNE,14,0.0,0.0,54,0.00,,,0.00,0,WeatherCatV1.13B119,2013-02-07 05:00:00,
2013-02-07 00:05:00,27.4,13.4,30.10,NNE,14,0.0,0.0,55,0.00,,,0.00,0,WeatherCatV1.13B119,2013-02-07 05:05:00,
2013-02-07 00:10:00,27.4,13.4,30.09,NNE,14,0.0,0.0,55,0.00,,,0.00,0,WeatherCatV1.13B119,2013-02-07 05:10:00,
2013-02-07 00:15:00,27.2,14.4,30.09,NNE,14,0.0,0.0,58,0.00,,,0.00,0,WeatherCatV1.13B119,2013-02-07 05:15:00,
2013-02-07 00:20:00,27.0,15.0,30.10,NNE,14,0.0,0.0,60,0.00,,,0.00,0,WeatherCatV1.13B119,2013-02-07 05:20:00,
2013-02-07 00:25:00,26.8,15.2,30.10,NNE,14,0.0,0.0,61,0.00,,,0.00,0,WeatherCatV1.13B119,2013-02-07 05:25:00,
2013-02-07 00:30:00,26.7,15.1,30.10,NNE,14,0.0,0.0,61,0.00,,,0.00,0,WeatherCatV1.13B119,2013-02-07 05:30:00,
2013-02-07 00:35:00,26.5,14.9,30.10,NNE,14,0.0,0.0,61,0.00,,,0.00,0,WeatherCatV1.13B119,2013-02-07 05:35:00,
2013-02-07 00:40:00,26.2,15.0,30.10,NNE,14,0.0,1.0,62,0.00,,,0.00,0,WeatherCatV1.13B119,2013-02-07 05:40:00,
2013-02-07 00:45:00,25.9,14.3,30.10,NNE,14,0.0,0.0,61,0.00,,,0.00,0,WeatherCatV1.13B119,2013-02-07 05:45:00,
2013-02-07 00:50:00,25.8,13.9,30.10,NNE,14,1.0,1.0,60,0.00,,,0.00,0,WeatherCatV1.13B119,2013-02-07 05:50:00,
2013-02-07 00:55:00,25.8,12.7,30.10,NNE,15,0.0,1.0,57,0.00,,,0.00,0,WeatherCatV1.13B119,2013-02-07 05:55:00,
2013-02-07 01:00:00,25.9,12.8,30.11,NNE,17,0.0,1.0,57,0.00,,,0.00,0,WeatherCatV1.13B119,2013-02-07 06:00:00,
2013-02-07 01:05:00,25.9,12.8,30.11,NNE,17,0.0,0.0,57,0.00,,,0.00,0,WeatherCatV1.13B119,2013-02-07 06:05:00,
2013-02-07 01:10:00,26.0,12.1,30.11,NNE,17,0.0,0.0,55,0.00,,,0.00,0,WeatherCatV1.13B119,2013-02-07 06:10:00,
2013-02-07 01:15:00,26.0,12.5,30.12,NNE,17,0.0,0.0,56,0.00,,,0.00,0,WeatherCatV1.13B119,2013-02-07 06:15:00,
2013-02-07 01:20:00,26.0,13.7,30.12,NNE,17,0.0,0.0,59,0.00,,,0.00,0,WeatherCatV1.13B119,2013-02-07 06:20:00,
2013-02-07 01:25:00,25.8,13.9,30.11,NNE,17,0.0,0.0,60,0.00,,,0.00,0,WeatherCatV1.13B119,2013-02-07 06:25:00,
2013-02-07 01:30:00,25.5,14.3,30.11,NNE,17,0.0,0.0,62,0.00,,,0.00,0,WeatherCatV1.13B119,2013-02-07 06:30:00,
2013-02-07 01:35:00,25.3,14.9,30.11,NNE,17,0.0,0.0,64,0.00,,,0.00,0,WeatherCatV1.13B119,2013-02-07 06:35:00,
2013-02-07 01:40:00,25.2,15.5,30.11,NNE,17,0.0,0.0,66,0.00,,,0.00,0,WeatherCatV1.13B119,2013-02-07 06:40:00,
2013-02-07 01:45:00,25.0,15.6,30.11,NNE,17,0.0,0.0,67,0.00,,,0.00,0,WeatherCatV1.13B119,2013-02-07 06:45:00,
2013-02-07 01:50:00,24.8,15.4,30.11,NNE,17,0.0,0.0,67,0.00,,,0.00,0,WeatherCatV1.13B119,2013-02-07 06:50:00,
2013-02-07 01:53:00,24.6,15.6,30.11,NNE,17,0.0,0.0,68,0.00,,,0.00,0,WeatherCatV1.13B119,2013-02-07 06:53:00,
2013-02-07 01:58:00,24.3,15.3,30.12,NNE,17,0.0,0.0,68,0.00,,,0.00,0,WeatherCatV1.13B119,2013-02-07 06:58:00,
2013-02-07 02:03:00,24.1,15.1,30.12,NNE,17,0.0,0.0,68,0.00,,,0.00,0,WeatherCatV1.13B119,2013-02-07 07:03:00,
2013-02-07 02:08:00,23.9,15.2,30.12,NNE,17,0.0,0.0,69,0.00,,,0.00,0,WeatherCatV1.13B119,2013-02-07 07:08:00,
2013-02-07 02:13:00,23.6,15.3,30.11,NNE,17,0.0,1.0,70,0.00,,,0.00,0,WeatherCatV1.13B119,2013-02-07 07:13:00,
2013-02-07 02:18:00,23.3,15.3,30.11,NNE,17,0.0,0.0,71,0.00,,,0.00,0,WeatherCatV1.13B119,2013-02-07 07:18:00,
2013-02-07 02:23:00,23.2,14.9,30.11,NNE,17,0.0,0.0,70,0.00,,,0.00,0,WeatherCatV1.13B119,2013-02-07 07:23:00,
2013-02-07 02:28:00,23.1,15.1,30.12,NNE,17,0.0,1.0,71,0.00,,,0.00,0,WeatherCatV1.13B119,2013-02-07 07:28:00,
2013-02-07 02:33:00,23.0,15.3,30.13,NNE,17,1.0,1.0,72,0.00,,,0.00,0,WeatherCatV1.13B119,2013-02-07 07:33:00,
2013-02-07 02:38:00,22.8,15.5,30.14,NNE,17,0.0,0.0,73,0.00,,,0.00,0,WeatherCatV1.13B119,2013-02-07 07:38:00,
2013-02-07 02:43:00,22.7,16.0,30.14,NNE,17,0.0,0.0,75,0.00,,,0.00,0,WeatherCatV1.13B119,2013-02-07 07:43:00,
2013-02-07 02:48:00,22.6,16.2,30.13,NNE,17,0.0,0.0,76,0.00,,,0.00,0,WeatherCatV1.13B119,2013-02-07 07:48:00,
2013-02-07 02:53:00,22.4,16.0,30.14,NNE,17,0.0,0.0,76,0.00,,,0.00,0,WeatherCatV1.13B119,2013-02-07 07:53:00,
2013-02-07 02:58:00,22.3,16.2,30.14,NNE,17,0.0,0.0,77,0.00,,,0.00,0,WeatherCatV1.13B119,2013-02-07 07:58:00,
2013-02-07 03:03:00,22.2,16.1,30.13,NNE,17,0.0,0.0,77,0.00,,,0.00,0,WeatherCatV1.13B119,2013-02-07 08:03:00,
2013-02-07 03:08:00,22.1,16.0,30.13,NNE,17,0.0,0.0,77,0.00,,,0.00,0,WeatherCatV1.13B119,2013-02-07 08:08:00,
2013-02-07 03:13:00,22.1,16.3,30.14,NNE,17,0.0,0.0,78,0.00,,,0.00,0,WeatherCatV1.13B119,2013-02-07 08:13:00,
2013-02-07 03:18:00,22.0,16.2,30.14,NNE,17,0.0,0.0,78,0.00,,,0.00,0,WeatherCatV1.13B119,2013-02-07 08:18:00,
2013-02-07 03:23:00,21.9,16.1,30.14,NNE,17,0.0,0.0,78,0.00,,,0.00,0,WeatherCatV1.13B119,2013-02-07 08:23:00,
2013-02-07 03:28:00,21.8,16.0,30.15,NNE,17,0.0,0.0,78,0.00,,,0.00,0,WeatherCatV1.13B119,2013-02-07 08:28:00,
2013-02-07 03:33:00,21.7,16.2,30.14,NNE,17,0.0,0.0,79,0.00,,,0.00,0,WeatherCatV1.13B119,2013-02-07 08:33:00,
2013-02-07 03:38:00,21.6,16.1,30.14,NNE,17,0.0,0.0,79,0.00,,,0.00,0,WeatherCatV1.13B119,2013-02-07 08:38:00,
2013-02-07 03:43:00,21.5,16.0,30.15,NNE,17,0.0,0.0,79,0.00,,,0.00,0,WeatherCatV1.13B119,2013-02-07 08:43:00,
2013-02-07 03:48:00,21.4,15.9,30.15,NNE,17,0.0,0.0,79,0.00,,,0.00,0,WeatherCatV1.13B119,2013-02-07 08:48:00,
2013-02-07 03:53:00,21.3,16.1,30.15,NNE,17,0.0,0.0,80,0.00,,,0.00,0,WeatherCatV1.13B119,2013-02-07 08:53:00,
2013-02-07 03:58:00,21.3,15.8,30.15,NNE,17,0.0,0.0,79,0.00,,,0.00,0,WeatherCatV1.13B119,2013-02-07 08:58:00,
2013-02-07 04:03:00,21.1,15.6,30.15,NNE,17,0.0,0.0,79,0.00,,,0.00,0,WeatherCatV1.13B119,2013-02-07 09:03:00,
2013-02-07 04:08:00,21.1,15.6,30.15,NNE,17,0.0,0.0,79,0.00,,,0.00,0,WeatherCatV1.13B119,2013-02-07 09:08:00,
2013-02-07 04:13:00,21.0,15.5,30.15,NNE,17,0.0,0.0,79,0.00,,,0.00,0,WeatherCatV1.13B119,2013-02-07 09:13:00,
2013-02-07 04:18:00,20.8,15.6,30.16,NNE,17,0.0,0.0,80,0.00,,,0.00,0,WeatherCatV1.13B119,2013-02-07 09:18:00,
2013-02-07 04:23:00,20.7,15.5,30.16,NNE,17,0.0,0.0,80,0.00,,,0.00,0,WeatherCatV1.13B119,2013-02-07 09:23:00,
2013-02-07 04:28:00,20.6,15.4,30.16,NNE,17,0.0,0.0,80,0.00,,,0.00,0,WeatherCatV1.13B119,2013-02-07 09:28:00,
2013-02-07 04:33:00,20.5,15.3,30.16,NNE,17,0.0,0.0,80,0.00,,,0.00,0,WeatherCatV1.13B119,2013-02-07 09:33:00,
2013-02-07 04:38:00,20.4,15.2,30.16,NNE,17,0.0,0.0,80,0.00,,,0.00,0,WeatherCatV1.13B119,2013-02-07 09:38:00,
2013-02-07 04:43:00,20.3,15.1,30.16,NNE,17,0.0,0.0,80,0.00,,,0.00,0,WeatherCatV1.13B119,2013-02-07 09:43:00,
2013-02-07 04:48:00,20.2,15.0,30.16,NNE,17,0.0,0.0,80,0.00,,,0.00,0,WeatherCatV1.13B119,2013-02-07 09:48:00,
2013-02-07 04:53:00,20.1,14.9,30.16,NNE,17,0.0,0.0,80,0.00,,,0.00,0,WeatherCatV1.13B119,2013-02-07 09:53:00,
2013-02-07 04:58:00,20.0,14.8,30.16,NNE,17,0.0,1.0,80,0.00,,,0.00,0,WeatherCatV1.13B119,2013-02-07 09:58:00,
2013-02-07 05:03:00,20.0,15.1,30.16,NNE,17,0.0,0.0,81,0.00,,,0.00,0,WeatherCatV1.13B119,2013-02-07 10:03:00,
2013-02-07 05:08:00,19.9,15.0,30.16,NNE,17,0.0,0.0,81,0.00,,,0.00,0,WeatherCatV1.13B119,2013-02-07 10:08:00,
2013-02-07 05:13:00,19.8,14.9,30.17,NNE,17,0.0,0.0,81,0.00,,,0.00,0,WeatherCatV1.13B119,2013-02-07 10:13:00,
2013-02-07 05:18:00,19.7,14.8,30.17,NNE,17,0.0,0.0,81,0.00,,,0.00,0,WeatherCatV1.13B119,2013-02-07 10:18:00,
2013-02-07 05:23:00,19.6,15.0,30.17,NNE,17,0.0,0.0,82,0.00,,,0.00,0,WeatherCatV1.13B119,2013-02-07 10:23:00,
2013-02-07 05:28:00,19.6,15.3,30.17,NNE,17,0.0,0.0,83,0.00,,,0.00,0,WeatherCatV1.13B119,2013-02-07 10:28:00,
2013-02-07 05:33:00,19.5,15.2,30.17,NNE,17,0.0,0.0,83,0.00,,,0.00,0,WeatherCatV1.13B119,2013-02-07 10:33:00,
2013-02-07 05:38:00,19.5,15.2,30.17,NNE,17,0.0,0.0,83,0.00,,,0.00,0,WeatherCatV1.13B119,2013-02-07 10:38:00,
2013-02-07 05:43:00,19.4,15.1,30.17,NNE,17,0.0,0.0,83,0.00,,,0.00,0,WeatherCatV1.13B119,2013-02-07 10:43:00,
2013-02-07 05:48:00,19.4,15.1,30.17,NNE,17,0.0,0.0,83,0.00,,,0.00,0,WeatherCatV1.13B119,2013-02-07 10:48:00,
2013-02-07 05:53:00,19.4,15.4,30.17,NNE,17,0.0,0.0,84,0.00,,,0.00,0,WeatherCatV1.13B119,2013-02-07 10:53:00,
2013-02-07 05:58:00,19.3,15.3,30.16,NNE,17,0.0,0.0,84,0.00,,,0.00,0,WeatherCatV1.13B119,2013-02-07 10:58:00,
2013-02-07 06:03:00,19.3,15.5,30.16,NNE,17,0.0,0.0,85,0.00,,,0.00,0,WeatherCatV1.13B119,2013-02-07 11:03:00,
2013-02-07 06:08:00,19.3,15.5,30.17,NNE,17,0.0,0.0,85,0.00,,,0.00,0,WeatherCatV1.13B119,2013-02-07 11:08:00,
2013-02-07 06:13:00,19.4,15.6,30.17,NNE,17,0.0,0.0,85,0.00,,,0.00,0,WeatherCatV1.13B119,2013-02-07 11:13:00,
2013-02-07 06:18:00,19.4,15.9,30.18,NNE,17,0.0,0.0,86,0.00,,,0.00,0,WeatherCatV1.13B119,2013-02-07 11:18:00,
2013-02-07 06:23:00,19.5,16.0,30.18,NNE,17,0.0,0.0,86,0.00,,,0.00,0,WeatherCatV1.13B119,2013-02-07 11:23:00,
2013-02-07 06:28:00,19.5,16.0,30.18,NNE,17,0.0,0.0,86,0.00,,,0.00,0,WeatherCatV1.13B119,2013-02-07 11:28:00,
2013-02-07 06:33:00,19.6,16.1,30.19,NNE,17,0.0,0.0,86,0.00,,,0.00,0,WeatherCatV1.13B119,2013-02-07 11:33:00,
2013-02-07 06:38:00,19.7,16.2,30.19,NNE,17,0.0,0.0,86,0.00,,,0.00,0,WeatherCatV1.13B119,2013-02-07 11:38:00,
2013-02-07 06:43:00,19.8,16.6,30.19,NNE,17,0.0,0.0,87,0.00,,,0.00,0,WeatherCatV1.13B119,2013-02-07 11:43:00,
2013-02-07 06:48:00,19.9,16.7,30.19,NNE,17,0.0,0.0,87,0.00,,,0.00,0,WeatherCatV1.13B119,2013-02-07 11:48:00,
2013-02-07 06:53:00,20.0,16.5,30.19,NNE,17,0.0,0.0,86,0.00,,,0.00,0,WeatherCatV1.13B119,2013-02-07 11:53:00,
2013-02-07 06:58:00,20.0,16.5,30.19,NNE,17,0.0,0.0,86,0.00,,,0.00,0,WeatherCatV1.13B119,2013-02-07 11:58:00,
2013-02-07 07:03:00,20.1,16.6,30.19,NNE,17,0.0,0.0,86,0.00,,,0.00,0,WeatherCatV1.13B119,2013-02-07 12:03:00,
2013-02-07 07:08:00,20.1,16.3,30.20,NNE,17,0.0,0.0,85,0.00,,,0.00,0,WeatherCatV1.13B119,2013-02-07 12:08:00,
2013-02-07 07:13:00,20.2,16.4,30.20,NNE,17,0.0,0.0,85,0.00,,,0.00,5,WeatherCatV1.13B119,2013-02-07 12:13:00,
2013-02-07 07:18:00,20.3,16.5,30.21,NNE,17,0.0,0.0,85,0.00,,,0.00,7,WeatherCatV1.13B119,2013-02-07 12:18:00,
2013-02-07 07:23:00,20.3,16.5,30.21,NNE,17,0.0,0.0,85,0.00,,,0.00,11,WeatherCatV1.13B119,2013-02-07 12:23:00,
2013-02-07 07:28:00,20.4,16.6,30.22,NNE,17,0.0,0.0,85,0.00,,,0.00,14,WeatherCatV1.13B119,2013-02-07 12:28:00,
2013-02-07 07:33:00,20.4,16.6,30.22,NNE,17,0.0,0.0,85,0.00,,,0.00,19,WeatherCatV1.13B119,2013-02-07 12:33:00,
2013-02-07 07:38:00,20.5,16.7,30.22,NNE,17,0.0,0.0,85,0.00,,,0.00,23,WeatherCatV1.13B119,2013-02-07 12:38:00,
2013-02-07 07:43:00,20.6,16.8,30.23,NNE,17,0.0,0.0,85,0.00,,,0.00,26,WeatherCatV1.13B119,2013-02-07 12:43:00,
2013-02-07 07:48:00,20.7,17.2,30.23,NNE,17,0.0,0.0,86,0.00,,,0.00,32,WeatherCatV1.13B119,2013-02-07 12:48:00,
2013-02-07 07:53:00,20.8,17.3,30.23,NNE,17,0.0,0.0,86,0.00,,,0.00,35,WeatherCatV1.13B119,2013-02-07 12:53:00,
2013-02-07 07:58:00,20.9,17.4,30.23,NNE,17,0.0,0.0,86,0.00,,,0.00,40,WeatherCatV1.13B119,2013-02-07 12:58:00,
2013-02-07 08:03:00,21.1,17.6,30.23,NNE,17,0.0,0.0,86,0.00,,,0.00,46,WeatherCatV1.13B119,2013-02-07 13:03:00,
2013-02-07 08:08:00,21.3,17.8,30.23,NNE,17,0.0,0.0,86,0.00,,,0.00,49,WeatherCatV1.13B119,2013-02-07 13:08:00,
2013-02-07 08:13:00,21.5,17.7,30.23,NNE,17,0.0,0.0,85,0.00,,,0.00,53,WeatherCatV1.13B119,2013-02-07 13:13:00,
2013-02-07 08:18:00,21.7,17.9,30.23,NNE,17,0.0,0.0,85,0.00,,,0.00,58,WeatherCatV1.13B119,2013-02-07 13:18:00,
2013-02-07 08:23:00,21.8,17.7,30.24,NNE,17,0.0,0.0,84,0.00,,,0.00,65,WeatherCatV1.13B119,2013-02-07 13:23:00,
2013-02-07 08:28:00,22.0,17.9,30.23,NNE,17,0.0,0.0,84,0.00,,,0.00,67,WeatherCatV1.13B119,2013-02-07 13:28:00,
2013-02-07 08:33:00,22.2,17.8,30.23,NNE,17,0.0,0.0,83,0.00,,,0.00,76,WeatherCatV1.13B119,2013-02-07 13:33:00,
2013-02-07 08:38:00,22.4,17.8,30.23,NNE,17,0.0,0.0,82,0.00,,,0.00,86,WeatherCatV1.13B119,2013-02-07 13:38:00,
2013-02-07 08:43:00,22.7,17.5,30.23,NNE,17,0.0,0.0,80,0.00,,,0.00,95,WeatherCatV1.13B119,2013-02-07 13:43:00,
2013-02-07 08:48:00,23.2,17.1,30.23,NNE,17,0.0,0.0,77,0.00,,,0.00,98,WeatherCatV1.13B119,2013-02-07 13:48:00,
2013-02-07 08:53:00,23.6,16.6,30.23,NNE,17,2.0,2.0,74,0.00,,,0.00,98,WeatherCatV1.13B119,2013-02-07 13:53:00,
2013-02-07 08:58:00,24.2,15.5,30.23,North,355,0.0,3.0,69,0.00,,,0.00,104,WeatherCatV1.13B119,2013-02-07 13:58:00,
2013-02-07 09:03:00,24.7,15.3,30.23,North,0,0.0,1.0,67,0.00,,,0.00,111,WeatherCatV1.13B119,2013-02-07 14:03:00,
2013-02-07 09:08:00,25.0,14.9,30.23,NNW,348,1.0,3.0,65,0.00,,,0.00,118,WeatherCatV1.13B119,2013-02-07 14:08:00,
2013-02-07 09:13:00,25.3,15.2,30.23,North,5,1.0,1.0,65,0.00,,,0.00,116,WeatherCatV1.13B119,2013-02-07 14:13:00,
2013-02-07 09:18:00,25.6,14.8,30.23,ENE,67,1.0,3.0,63,0.00,,,0.00,118,WeatherCatV1.13B119,2013-02-07 14:18:00,
2013-02-07 09:23:00,25.8,14.6,30.22,NE,51,2.0,2.0,62,0.00,,,0.00,114,WeatherCatV1.13B119,2013-02-07 14:23:00,
2013-02-07 09:28:00,26.0,14.8,30.22,ENE,65,1.0,2.0,62,0.00,,,0.00,118,WeatherCatV1.13B119,2013-02-07 14:28:00,
2013-02-07 09:33:00,26.1,14.5,30.22,ENE,65,1.0,2.0,61,0.00,,,0.00,120,WeatherCatV1.13B119,2013-02-07 14:33:00,
2013-02-07 09:38:00,26.2,14.2,30.22,NE,51,1.0,2.0,60,0.00,,,0.00,128,WeatherCatV1.13B119,2013-02-07 14:38:00,
2013-02-07 09:43:00,26.3,14.7,30.23,ENE,66,0.0,2.0,61,0.00,,,0.00,135,WeatherCatV1.13B119,2013-02-07 14:43:00,
2013-02-07 09:48:00,26.5,14.5,30.23,ENE,66,0.0,2.0,60,0.00,,,0.00,148,WeatherCatV1.13B119,2013-02-07 14:48:00,
2013-02-07 09:53:00,26.7,14.7,30.23,ENE,66,1.0,2.0,60,0.00,,,0.00,149,WeatherCatV1.13B119,2013-02-07 14:53:00,
2013-02-07 09:58:00,26.9,14.9,30.23,NE,40,2.0,2.0,60,0.00,,,0.00,155,WeatherCatV1.13B119,2013-02-07 14:58:00,
2013-02-07 10:03:00,27.2,14.4,30.23,ENE,70,0.0,4.0,58,0.00,,,0.00,160,WeatherCatV1.13B119,2013-02-07 15:03:00,
2013-02-07 10:08:00,27.3,14.5,30.23,ENE,69,1.0,2.0,58,0.00,,,0.00,172,WeatherCatV1.13B119,2013-02-07 15:08:00,
2013-02-07 10:13:00,27.5,14.3,30.23,ENE,61,0.0,3.0,57,0.00,,,0.00,174,WeatherCatV1.13B119,2013-02-07 15:13:00,
2013-02-07 10:18:00,27.7,14.1,30.23,ENE,62,4.0,5.0,56,0.00,,,0.00,176,WeatherCatV1.13B119,2013-02-07 15:18:00,
2013-02-07 10:23:00,27.8,13.8,30.24,NNE,32,2.0,4.0,55,0.00,,,0.00,188,WeatherCatV1.13B119,2013-02-07 15:23:00,
2013-02-07 10:28:00,28.0,14.4,30.24,ENE,64,2.0,2.0,56,0.00,,,0.00,197,WeatherCatV1.13B119,2013-02-07 15:28:00,
2013-02-07 10:33:00,28.1,14.0,30.24,ENE,64,1.0,3.0,55,0.00,,,0.00,197,WeatherCatV1.13B119,2013-02-07 15:33:00,
2013-02-07 10:38:00,28.3,14.2,30.24,ENE,58,1.0,1.0,55,0.00,,,0.00,218,WeatherCatV1.13B119,2013-02-07 15:38:00,
2013-02-07 10:43:00,28.5,14.4,30.24,NNE,26,1.0,3.0,55,0.00,,,0.00,211,WeatherCatV1.13B119,2013-02-07 15:43:00,
2013-02-07 10:48:00,28.7,13.8,30.24,ENE,65,1.0,4.0,53,0.00,,,0.00,206,WeatherCatV1.13B119,2013-02-07 15:48:00,
2013-02-07 10:53:00,28.9,14.8,30.24,ENE,65,2.0,2.0,55,0.00,,,0.00,207,WeatherCatV1.13B119,2013-02-07 15:53:00,
2013-02-07 10:58:00,29.1,14.1,30.24,NNE,17,1.0,1.0,53,0.00,,,0.00,225,WeatherCatV1.13B119,2013-02-07 15:58:00,
2013-02-07 11:03:00,29.3,13.9,30.24,ENE,67,1.0,1.0,52,0.00,,,0.00,237,WeatherCatV1.13B119,2013-02-07 16:03:00,
2013-02-07 11:08:00,29.4,14.0,30.24,ENE,61,2.0,2.0,52,0.00,,,0.00,239,WeatherCatV1.13B119,2013-02-07 16:08:00,
2013-02-07 11:13:00,29.6,15.0,30.23,North,355,0.0,2.0,54,0.00,,,0.00,246,WeatherCatV1.13B119,2013-02-07 16:13:00,
2013-02-07 11:18:00,29.9,15.3,30.23,East,94,0.0,3.0,54,0.00,,,0.00,234,WeatherCatV1.13B119,2013-02-07 16:18:00,
2013-02-07 11:23:00,30.1,15.1,30.22,East,94,0.0,2.0,53,0.00,,,0.00,255,WeatherCatV1.13B119,2013-02-07 16:23:00,
2013-02-07 11:28:00,30.2,14.7,30.22,East,80,1.0,2.0,52,0.00,,,0.00,232,WeatherCatV1.13B119,2013-02-07 16:28:00,
2013-02-07 11:33:00,30.3,14.8,30.22,East,82,0.0,1.0,52,0.00,,,0.00,220,WeatherCatV1.13B119,2013-02-07 16:33:00,
2013-02-07 11:38:00,30.6,15.1,30.22,East,82,1.0,1.0,52,0.00,,,0.00,220,WeatherCatV1.13B119,2013-02-07 16:38:00,
2013-02-07 11:43:00,30.6,14.6,30.22,NE,55,2.0,2.0,51,0.00,,,0.00,229,WeatherCatV1.13B119,2013-02-07 16:43:00,
2013-02-07 11:48:00,30.6,15.1,30.22,NW,304,0.0,3.0,52,0.00,,,0.00,230,WeatherCatV1.13B119,2013-02-07 16:48:00,
2013-02-07 11:53:00,30.8,14.8,30.22,SSW,194,2.0,3.0,51,0.00,,,0.00,234,WeatherCatV1.13B119,2013-02-07 16:53:00,
2013-02-07 11:58:00,31.0,15.5,30.22,South,181,0.0,2.0,52,0.00,,,0.00,218,WeatherCatV1.13B119,2013-02-07 16:58:00,
2013-02-07 12:03:00,31.3,15.3,30.22,ESE,108,0.0,0.0,51,0.00,,,0.00,241,WeatherCatV1.13B119,2013-02-07 17:03:00,
2013-02-07 12:08:00,31.5,15.0,30.22,ENE,71,0.0,1.0,50,0.00,,,0.00,272,WeatherCatV1.13B119,2013-02-07 17:08:00,
2013-02-07 12:13:00,31.8,14.8,30.22,SSE,159,0.0,2.0,49,0.00,,,0.00,325,WeatherCatV1.13B119,2013-02-07 17:13:00,
2013-02-07 12:18:00,32.0,14.1,30.21,SSE,165,1.0,2.0,47,0.00,,,0.00,346,WeatherCatV1.13B119,2013-02-07 17:18:00,
2013-02-07 12:23:00,32.3,13.9,30.20,SSE,162,2.0,3.0,46,0.00,,,0.00,311,WeatherCatV1.13B119,2013-02-07 17:23:00,
2013-02-07 12:28:00,32.5,14.0,30.20,ESE,121,0.0,3.0,46,0.00,,,0.00,302,WeatherCatV1.13B119,2013-02-07 17:28:00,
2013-02-07 12:33:00,32.6,14.1,30.20,SE,134,1.0,2.0,46,0.00,,,0.00,311,WeatherCatV1.13B119,2013-02-07 17:33:00,
2013-02-07 12:38:00,32.7,13.7,30.20,SSE,148,2.0,2.0,45,0.00,,,0.00,322,WeatherCatV1.13B119,2013-02-07 17:38:00,
2013-02-07 12:42:00,32.7,14.2,30.19,SSE,158,0.0,3.0,46,0.00,,,0.00,264,WeatherCatV1.13B119,2013-02-07 17:42:00,
2013-02-07 12:47:00,32.8,14.3,30.19,SE,136,1.0,2.0,46,0.00,,,0.00,204,WeatherCatV1.13B119,2013-02-07 17:47:00,
2013-02-07 12:52:00,32.8,14.3,30.19,ESE,111,1.0,3.0,46,0.00,,,0.00,178,WeatherCatV1.13B119,2013-02-07 17:52:00,
2013-02-07 12:57:00,32.8,14.3,30.19,ESE,111,1.0,2.0,46,0.00,,,0.00,156,WeatherCatV1.13B119,2013-02-07 17:57:00,
2013-02-07 13:02:00,32.8,13.8,30.19,ESE,111,0.0,1.0,45,0.00,,,0.00,155,WeatherCatV1.13B119,2013-02-07 18:02:00,
2013-02-07 13:07:00,33.0,15.0,30.19,ESE,111,0.0,0.0,47,0.00,,,0.00,165,WeatherCatV1.13B119,2013-02-07 18:07:00,
2013-02-07 13:12:00,33.0,14.5,30.19,ESE,102,0.0,1.0,46,0.00,,,0.00,163,WeatherCatV1.13B119,2013-02-07 18:12:00,
2013-02-07 13:17:00,33.0,14.5,30.19,SE,124,0.0,2.0,46,0.00,,,0.00,158,WeatherCatV1.13B119,2013-02-07 18:17:00,
2013-02-07 13:22:00,33.1,14.6,30.19,SE,124,0.0,1.0,46,0.00,,,0.00,149,WeatherCatV1.13B119,2013-02-07 18:22:00,
2013-02-07 13:27:00,33.1,15.1,30.18,SE,124,2.0,2.0,47,0.00,,,0.00,153,WeatherCatV1.13B119,2013-02-07 18:27:00,
2013-02-07 13:32:00,33.0,15.0,30.18,ESE,105,0.0,2.0,47,0.00,,,0.00,151,WeatherCatV1.13B119,2013-02-07 18:32:00,
2013-02-07 13:37:00,33.1,15.1,30.18,ESE,107,0.0,2.0,47,0.00,,,0.00,144,WeatherCatV1.13B119,2013-02-07 18:37:00,
2013-02-07 13:42:00,33.1,15.6,30.18,East,81,2.0,2.0,48,0.00,,,0.00,141,WeatherCatV1.13B119,2013-02-07 18:42:00,
2013-02-07 13:47:00,33.2,16.1,30.18,East,81,0.0,0.0,49,0.00,,,0.00,141,WeatherCatV1.13B119,2013-02-07 18:47:00,
2013-02-07 13:52:00,33.3,16.2,30.17,East,82,0.0,0.0,49,0.00,,,0.00,141,WeatherCatV1.13B119,2013-02-07 18:52:00,
2013-02-07 13:57:00,33.4,15.8,30.17,SE,144,1.0,2.0,48,0.00,,,0.00,146,WeatherCatV1.13B119,2013-02-07 18:57:00,
2013-02-07 14:02:00,33.3,16.2,30.17,ESE,107,0.0,2.0,49,0.00,,,0.00,144,WeatherCatV1.13B119,2013-02-07 19:02:00,
2013-02-07 14:07:00,33.2,16.1,30.17,ENE,72,0.0,2.0,49,0.00,,,0.00,141,WeatherCatV1.13B119,2013-02-07 19:07:00,
2013-02-07 14:12:00,33.2,16.1,30.17,East,90,1.0,3.0,49,0.00,,,0.00,142,WeatherCatV1.13B119,2013-02-07 19:12:00,
2013-02-07 14:17:00,33.3,16.7,30.16,SE,133,0.0,3.0,50,0.00,,,0.00,139,WeatherCatV1.13B119,2013-02-07 19:17:00,
2013-02-07 14:22:00,33.3,17.1,30.16,ESE,104,1.0,2.0,51,0.00,,,0.00,139,WeatherCatV1.13B119,2013-02-07 19:22:00,
2013-02-07 14:27:00,33.2,16.6,30.16,ESE,104,1.0,3.0,50,0.00,,,0.00,130,WeatherCatV1.13B119,2013-02-07 19:27:00,
2013-02-07 14:32:00,33.1,17.0,30.16,SSE,148,0.0,2.0,51,0.00,,,0.00,125,WeatherCatV1.13B119,2013-02-07 19:32:00,
2013-02-07 14:37:00,33.1,16.5,30.16,East,92,0.0,1.0,50,0.00,,,0.00,120,WeatherCatV1.13B119,2013-02-07 19:37:00,
2013-02-07 14:42:00,32.9,16.3,30.16,East,97,0.0,3.0,50,0.00,,,0.00,116,WeatherCatV1.13B119,2013-02-07 19:42:00,
2013-02-07 14:47:00,32.9,16.8,30.17,East,97,0.0,0.0,51,0.00,,,0.00,114,WeatherCatV1.13B119,2013-02-07 19:47:00,
2013-02-07 14:52:00,32.9,16.8,30.17,East,97,1.0,2.0,51,0.00,,,0.00,111,WeatherCatV1.13B119,2013-02-07 19:52:00,
2013-02-07 14:57:00,32.9,16.8,30.16,East,91,2.0,3.0,51,0.00,,,0.00,102,WeatherCatV1.13B119,2013-02-07 19:57:00,
2013-02-07 15:02:00,32.8,16.2,30.16,East,91,1.0,3.0,50,0.00,,,0.00,95,WeatherCatV1.13B119,2013-02-07 20:02:00,
2013-02-07 15:07:00,32.7,16.6,30.16,East,91,1.0,1.0,51,0.00,,,0.00,93,WeatherCatV1.13B119,2013-02-07 20:07:00,
2013-02-07 15:12:00,32.7,16.6,30.16,East,91,1.0,2.0,51,0.00,,,0.00,93,WeatherCatV1.13B119,2013-02-07 20:12:00,
2013-02-07 15:17:00,32.7,16.6,30.15,ESE,105,1.0,3.0,51,0.00,,,0.00,86,WeatherCatV1.13B119,2013-02-07 20:17:00,
2013-02-07 15:22:00,32.7,16.6,30.15,ESE,107,1.0,2.0,51,0.00,,,0.00,84,WeatherCatV1.13B119,2013-02-07 20:22:00,
2013-02-07 15:27:00,32.6,16.0,30.15,ESE,122,1.0,3.0,50,0.00,,,0.00,83,WeatherCatV1.13B119,2013-02-07 20:27:00,
2013-02-07 15:32:00,32.5,15.5,30.15,ESE,106,0.0,2.0,49,0.00,,,0.00,77,WeatherCatV1.13B119,2013-02-07 20:32:00,
2013-02-07 15:37:00,32.4,15.9,30.15,ESE,106,0.0,2.0,50,0.00,,,0.00,76,WeatherCatV1.13B119,2013-02-07 20:37:00,
2013-02-07 15:42:00,32.4,15.9,30.15,ESE,106,0.0,1.0,50,0.00,,,0.00,63,WeatherCatV1.13B119,2013-02-07 20:42:00,
2013-02-07 15:47:00,32.4,15.9,30.16,ESE,114,2.0,4.0,50,0.00,,,0.00,60,WeatherCatV1.13B119,2013-02-07 20:47:00,
2013-02-07 15:52:00,32.3,15.8,30.15,East,82,0.0,2.0,50,0.00,,,0.00,58,WeatherCatV1.13B119,2013-02-07 20:52:00,
2013-02-07 15:57:00,32.3,15.8,30.15,East,93,0.0,2.0,50,0.00,,,0.00,56,WeatherCatV1.13B119,2013-02-07 20:57:00,
2013-02-07 16:02:00,32.2,15.7,30.15,East,93,2.0,2.0,50,0.00,,,0.00,60,WeatherCatV1.13B119,2013-02-07 21:02:00,
2013-02-07 16:07:00,32.2,15.2,30.15,East,93,1.0,1.0,49,0.00,,,0.00,70,WeatherCatV1.13B119,2013-02-07 21:07:00,
2013-02-07 16:12:00,32.2,15.2,30.15,East,93,0.0,2.0,49,0.00,,,0.00,60,WeatherCatV1.13B119,2013-02-07 21:12:00,
2013-02-07 16:17:00,32.2,15.7,30.14,East,98,2.0,2.0,50,0.00,,,0.00,56,WeatherCatV1.13B119,2013-02-07 21:17:00,
2013-02-07 16:22:00,32.1,15.6,30.14,ESE,115,1.0,2.0,50,0.00,,,0.00,49,WeatherCatV1.13B119,2013-02-07 21:22:00,
2013-02-07 16:27:00,32.1,15.1,30.14,SE,128,2.0,3.0,49,0.00,,,0.00,46,WeatherCatV1.13B119,2013-02-07 21:27:00,
2013-02-07 16:32:00,32.0,15.5,30.14,SE,127,2.0,2.0,50,0.00,,,0.00,42,WeatherCatV1.13B119,2013-02-07 21:32:00,
2013-02-07 16:37:00,31.9,15.4,30.14,East,97,1.0,2.0,50,0.00,,,0.00,40,WeatherCatV1.13B119,2013-02-07 21:37:00,
2013-02-07 16:42:00,31.8,15.3,30.14,SSE,153,1.0,2.0,50,0.00,,,0.00,33,WeatherCatV1.13B119,2013-02-07 21:42:00,
2013-02-07 16:47:00,31.7,15.2,30.14,SE,134,0.0,2.0,50,0.00,,,0.00,26,WeatherCatV1.13B119,2013-02-07 21:47:00,
2013-02-07 16:52:00,31.7,16.1,30.14,ESE,121,0.0,2.0,52,0.00,,,0.00,23,WeatherCatV1.13B119,2013-02-07 21:52:00,
2013-02-07 16:57:00,31.6,16.0,30.13,ESE,121,0.0,0.0,52,0.00,,,0.00,18,WeatherCatV1.13B119,2013-02-07 21:57:00,
2013-02-07 17:02:00,31.6,16.0,30.14,ESE,121,2.0,2.0,52,0.00,,,0.00,12,WeatherCatV1.13B119,2013-02-07 22:02:00,
2013-02-07 17:07:00,31.5,15.5,30.14,ESE,119,1.0,2.0,51,0.00,,,0.00,9,WeatherCatV1.13B119,2013-02-07 22:07:00,
2013-02-07 17:12:00,31.4,15.8,30.14,SSE,155,1.0,2.0,52,0.00,,,0.00,5,WeatherCatV1.13B119,2013-02-07 22:12:00,
2013-02-07 17:17:00,31.3,15.7,30.14,SE,135,0.0,2.0,52,0.00,,,0.00,0,WeatherCatV1.13B119,2013-02-07 22:17:00,
2013-02-07 17:22:00,31.2,15.2,30.14,SE,135,1.0,2.0,51,0.00,,,0.00,0,WeatherCatV1.13B119,2013-02-07 22:22:00,
2013-02-07 17:27:00,31.2,15.2,30.14,SE,134,1.0,2.0,51,0.00,,,0.00,0,WeatherCatV1.13B119,2013-02-07 22:27:00,
2013-02-07 17:32:00,31.2,15.2,30.14,SE,134,0.0,1.0,51,0.00,,,0.00,0,WeatherCatV1.13B119,2013-02-07 22:32:00,
2013-02-07 17:37:00,31.1,14.7,30.14,SE,133,0.0,2.0,50,0.00,,,0.00,0,WeatherCatV1.13B119,2013-02-07 22:37:00,
2013-02-07 17:42:00,31.0,14.6,30.14,SE,133,0.0,0.0,50,0.00,,,0.00,0,WeatherCatV1.13B119,2013-02-07 22:42:00,
2013-02-07 17:47:00,31.0,15.0,30.14,SE,133,0.0,1.0,51,0.00,,,0.00,0,WeatherCatV1.13B119,2013-02-07 22:47:00,
2013-02-07 17:52:00,31.0,15.0,30.14,SE,133,0.0,0.0,51,0.00,,,0.00,0,WeatherCatV1.13B119,2013-02-07 22:52:00,
2013-02-07 17:57:00,30.9,14.9,30.14,SE,133,0.0,2.0,51,0.00,,,0.00,0,WeatherCatV1.13B119,2013-02-07 22:57:00,
2013-02-07 18:02:00,30.9,15.4,30.14,SE,133,0.0,0.0,52,0.00,,,0.00,0,WeatherCatV1.13B119,2013-02-07 23:02:00,
2013-02-07 18:07:00,30.8,15.3,30.14,SE,133,0.0,2.0,52,0.00,,,0.00,0,WeatherCatV1.13B119,2013-02-07 23:07:00,
2013-02-07 18:12:00,30.8,15.3,30.14,SE,133,0.0,0.0,52,0.00,,,0.00,0,WeatherCatV1.13B119,2013-02-07 23:12:00,
2013-02-07 18:17:00,30.8,15.3,30.14,SE,133,0.0,0.0,52,0.00,,,0.00,0,WeatherCatV1.13B119,2013-02-07 23:17:00,
2013-02-07 18:22:00,30.7,15.6,30.14,SE,133,0.0,0.0,53,0.00,,,0.00,0,WeatherCatV1.13B119,2013-02-07 23:22:00,
2013-02-07 18:27:00,30.7,15.2,30.14,SE,133,0.0,0.0,52,0.00,,,0.00,0,WeatherCatV1.13B119,2013-02-07 23:27:00,
2013-02-07 18:32:00,30.6,15.1,30.15,SE,133,0.0,0.0,52,0.00,,,0.00,0,WeatherCatV1.13B119,2013-02-07 23:32:00,
2013-02-07 18:37:00,30.6,15.1,30.15,SE,133,0.0,0.0,52,0.00,,,0.00,0,WeatherCatV1.13B119,2013-02-07 23:37:00,
2013-02-07 18:42:00,30.5,15.9,30.15,SE,133,0.0,0.0,54,0.00,,,0.00,0,WeatherCatV1.13B119,2013-02-07 23:42:00,
2013-02-07 18:47:00,30.5,16.3,30.15,SE,133,0.0,0.0,55,0.00,,,0.00,0,WeatherCatV1.13B119,2013-02-07 23:47:00,
2013-02-07 18:52:00,30.4,16.6,30.15,SE,133,0.0,0.0,56,0.00,,,0.00,0,WeatherCatV1.13B119,2013-02-07 23:52:00,
2013-02-07 18:57:00,30.4,17.0,30.15,SE,133,0.0,0.0,57,0.00,,,0.00,0,WeatherCatV1.13B119,2013-02-07 23:57:00,
2013-02-07 19:02:00,30.3,17.3,30.15,SE,133,0.0,0.0,58,0.00,,,0.00,0,WeatherCatV1.13B119,2013-02-08 00:02:00,
2013-02-07 19:07:00,30.3,17.3,30.15,SE,133,0.0,0.0,58,0.00,,,0.00,0,WeatherCatV1.13B119,2013-02-08 00:07:00,
2013-02-07 19:12:00,30.2,17.6,30.15,SE,133,0.0,0.0,59,0.00,,,0.00,0,WeatherCatV1.13B119,2013-02-08 00:12:00,
2013-02-07 19:17:00,30.1,17.5,30.15,SE,133,0.0,0.0,59,0.00,,,0.00,0,WeatherCatV1.13B119,2013-02-08 00:17:00,
2013-02-07 19:22:00,30.1,17.5,30.15,SE,133,0.0,0.0,59,0.00,,,0.00,0,WeatherCatV1.13B119,2013-02-08 00:22:00,
2013-02-07 19:27:00,30.0,17.8,30.15,SE,133,0.0,0.0,60,0.00,,,0.00,0,WeatherCatV1.13B119,2013-02-08 00:27:00,
2013-02-07 19:32:00,29.9,17.3,30.15,SE,133,0.0,0.0,59,0.00,,,0.00,0,WeatherCatV1.13B119,2013-02-08 00:32:00,
2013-02-07 19:37:00,29.8,17.2,30.15,SE,133,0.0,0.0,59,0.00,,,0.00,0,WeatherCatV1.13B119,2013-02-08 00:37:00,
2013-02-07 19:42:00,29.8,17.6,30.15,SE,133,0.0,0.0,60,0.00,,,0.00,0,WeatherCatV1.13B119,2013-02-08 00:42:00,
2013-02-07 19:47:00,29.8,17.2,30.15,SE,133,0.0,0.0,59,0.00,,,0.00,0,WeatherCatV1.13B119,2013-02-08 00:47:00,
2013-02-07 19:52:00,29.9,17.7,30.14,SE,133,0.0,0.0,60,0.00,,,0.00,0,WeatherCatV1.13B119,2013-02-08 00:52:00,
2013-02-07 19:57:00,29.9,17.7,30.14,SE,133,1.0,2.0,60,0.00,,,0.00,0,WeatherCatV1.13B119,2013-02-08 00:57:00,
2013-02-07 20:02:00,30.0,18.2,30.14,SE,133,0.0,0.0,61,0.00,,,0.00,0,WeatherCatV1.13B119,2013-02-08 01:02:00,
2013-02-07 20:07:00,30.0,18.2,30.14,SE,133,0.0,1.0,61,0.00,,,0.00,0,WeatherCatV1.13B119,2013-02-08 01:07:00,
2013-02-07 20:12:00,30.1,18.7,30.14,SE,129,0.0,1.0,62,0.00,,,0.00,0,WeatherCatV1.13B119,2013-02-08 01:12:00,
2013-02-07 20:17:00,30.2,19.1,30.14,SE,129,0.0,1.0,63,0.00,,,0.00,0,WeatherCatV1.13B119,2013-02-08 01:17:00,
2013-02-07 20:22:00,30.3,19.2,30.14,SE,129,0.0,1.0,63,0.00,,,0.00,0,WeatherCatV1.13B119,2013-02-08 01:22:00,
2013-02-07 20:27:00,30.3,19.6,30.13,SE,126,0.0,1.0,64,0.00,,,0.00,0,WeatherCatV1.13B119,2013-02-08 01:27:00,
2013-02-07 20:32:00,30.4,19.7,30.13,ENE,68,0.0,2.0,64,0.00,,,0.00,0,WeatherCatV1.13B119,2013-02-08 01:32:00,
2013-02-07 20:37:00,30.5,19.8,30.13,ENE,68,0.0,2.0,64,0.00,,,0.00,0,WeatherCatV1.13B119,2013-02-08 01:37:00,
2013-02-07 20:42:00,30.6,19.9,30.13,ENE,68,2.0,3.0,64,0.00,,,0.00,0,WeatherCatV1.13B119,2013-02-08 01:42:00,
2013-02-07 20:47:00,30.6,20.3,30.13,ENE,68,1.0,2.0,65,0.00,,,0.00,0,WeatherCatV1.13B119,2013-02-08 01:47:00,
2013-02-07 20:52:00,30.7,20.4,30.13,ENE,68,0.0,2.0,65,0.00,,,0.00,0,WeatherCatV1.13B119,2013-02-08 01:52:00,
2013-02-07 20:57:00,30.8,20.4,30.13,NE,51,0.0,2.0,65,0.00,,,0.00,0,WeatherCatV1.13B119,2013-02-08 01:57:00,
2013-02-07 21:02:00,30.9,20.9,30.13,NE,51,1.0,1.0,66,0.00,,,0.00,0,WeatherCatV1.13B119,2013-02-08 02:02:00,
2013-02-07 21:07:00,30.9,20.9,30.12,ENE,69,2.0,2.0,66,0.00,,,0.00,0,WeatherCatV1.13B119,2013-02-08 02:07:00,
2013-02-07 21:12:00,31.0,21.0,30.12,ENE,69,1.0,2.0,66,0.00,,,0.00,0,WeatherCatV1.13B119,2013-02-08 02:12:00,
2013-02-07 21:17:00,31.0,21.3,30.12,ENE,69,1.0,3.0,67,0.00,,,0.00,0,WeatherCatV1.13B119,2013-02-08 02:17:00,
2013-02-07 21:22:00,31.0,21.0,30.12,ENE,69,0.0,2.0,66,0.00,,,0.00,0,WeatherCatV1.13B119,2013-02-08 02:22:00,
2013-02-07 21:27:00,30.9,19.4,30.12,ENE,69,1.0,2.0,62,0.00,,,0.00,0,WeatherCatV1.13B119,2013-02-08 02:27:00,
2013-02-07 21:32:00,30.8,18.6,30.12,ENE,69,0.0,3.0,60,0.00,,,0.00,0,WeatherCatV1.13B119,2013-02-08 02:32:00,
2013-02-07 21:37:00,30.6,17.6,30.12,ENE,70,1.0,3.0,58,0.00,,,0.00,0,WeatherCatV1.13B119,2013-02-08 02:37:00,
2013-02-07 21:42:00,30.5,17.5,30.12,ENE,62,1.0,3.0,58,0.00,,,0.00,0,WeatherCatV1.13B119,2013-02-08 02:42:00,
2013-02-07 21:47:00,30.4,17.0,30.12,ENE,70,2.0,2.0,57,0.00,,,0.00,0,WeatherCatV1.13B119,2013-02-08 02:47:00,
2013-02-07 21:52:00,30.3,17.7,30.12,ENE,62,1.0,1.0,59,0.00,,,0.00,0,WeatherCatV1.13B119,2013-02-08 02:52:00,
2013-02-07 21:57:00,30.3,17.7,30.11,NE,56,1.0,2.0,59,0.00,,,0.00,0,WeatherCatV1.13B119,2013-02-08 02:57:00,
2013-02-07 22:02:00,30.2,17.2,30.11,ENE,63,1.0,3.0,58,0.00,,,0.00,0,WeatherCatV1.13B119,2013-02-08 03:02:00,
2013-02-07 22:07:00,30.1,17.5,30.11,ENE,64,1.0,3.0,59,0.00,,,0.00,0,WeatherCatV1.13B119,2013-02-08 03:07:00,
2013-02-07 22:12:00,30.1,17.5,30.11,ENE,64,0.0,1.0,59,0.00,,,0.00,0,WeatherCatV1.13B119,2013-02-08 03:12:00,
2013-02-07 22:17:00,30.1,17.5,30.11,NE,38,0.0,4.0,59,0.00,,,0.00,0,WeatherCatV1.13B119,2013-02-08 03:17:00,
2013-02-07 22:22:00,30.0,17.4,30.11,NE,47,1.0,2.0,59,0.00,,,0.00,0,WeatherCatV1.13B119,2013-02-08 03:22:00,
2013-02-07 22:27:00,30.0,17.8,30.10,ENE,71,3.0,3.0,60,0.00,,,0.00,0,WeatherCatV1.13B119,2013-02-08 03:27:00,
2013-02-07 22:32:00,29.9,17.7,30.10,NE,38,1.0,2.0,60,0.00,,,0.00,0,WeatherCatV1.13B119,2013-02-08 03:32:00,
2013-02-07 22:37:00,29.9,18.1,30.10,ENE,59,1.0,2.0,61,0.00,,,0.00,0,WeatherCatV1.13B119,2013-02-08 03:37:00,
2013-02-07 22:42:00,29.9,18.1,30.10,ENE,74,1.0,1.0,61,0.00,,,0.00,0,WeatherCatV1.13B119,2013-02-08 03:42:00,
2013-02-07 22:47:00,29.9,18.1,30.09,ENE,64,2.0,2.0,61,0.00,,,0.00,0,WeatherCatV1.13B119,2013-02-08 03:47:00,
2013-02-07 22:52:00,29.9,18.5,30.09,ENE,66,0.0,2.0,62,0.00,,,0.00,0,WeatherCatV1.13B119,2013-02-08 03:52:00,
2013-02-07 22:57:00,29.8,18.4,30.08,ENE,66,0.0,2.0,62,0.00,,,0.00,0,WeatherCatV1.13B119,2013-02-08 03:57:00,
2013-02-07 23:02:00,29.8,18.4,30.08,ENE,66,1.0,2.0,62,0.00,,,0.00,0,WeatherCatV1.13B119,2013-02-08 04:02:00,
2013-02-07 23:07:00,29.8,18.4,30.08,ENE,69,4.0,4.0,62,0.00,,,0.00,0,WeatherCatV1.13B119,2013-02-08 04:07:00,
2013-02-07 23:12:00,29.7,18.7,30.07,ENE,63,1.0,3.0,63,0.00,,,0.00,0,WeatherCatV1.13B119,2013-02-08 04:12:00,
2013-02-07 23:17:00,29.7,18.7,30.07,NE,51,0.0,3.0,63,0.00,,,0.00,0,WeatherCatV1.13B119,2013-02-08 04:17:00,
2013-02-07 23:22:00,29.7,19.0,30.07,ENE,68,1.0,3.0,64,0.00,,,0.00,0,WeatherCatV1.13B119,2013-02-08 04:22:00,
2013-02-07 23:27:00,29.8,19.5,30.06,ENE,68,3.0,4.0,65,0.00,,,0.00,0,WeatherCatV1.13B119,2013-02-08 04:27:00,
2013-02-07 23:32:00,29.8,19.5,30.06,ENE,63,1.0,2.0,65,0.00,,,0.00,0,WeatherCatV1.13B119,2013-02-08 04:32:00,
2013-02-07 23:37:00,29.8,19.5,30.06,ENE,65,4.0,4.0,65,0.00,,,0.00,0,WeatherCatV1.13B119,2013-02-08 04:37:00,
2013-02-07 23:42:00,29.9,19.9,30.06,NE,48,2.0,4.0,66,0.00,,,0.00,0,WeatherCatV1.13B119,2013-02-08 04:42:00,
2013-02-07 23:47:00,29.9,19.9,30.06,ENE,72,0.0,4.0,66,0.00,,,0.00,0,WeatherCatV1.13B119,2013-02-08 04:47:00,
2013-02-07 23:52:00,30.0,20.4,30.06,ENE,72,0.0,2.0,67,0.00,,,0.00,0,WeatherCatV1.13B119,2013-02-08 04:52:00,
2013-02-07 23:57:00,30.1,20.5,30.05,ENE,67,1.0,2.0,67,0.00,,,0.00,0,WeatherCatV1.13B119,2013-02-08 04:57:00,